createdAt,value
2023-02-26T00:00:01.773Z,99.90
2023-02-26T00:02:28.660Z,99.90
2023-02-26T00:04:55.487Z,99.90
2023-02-26T00:07:23.753Z,99.90
2023-02-26T00:09:50.517Z,99.90
2023-02-26T00:12:17.892Z,99.90
2023-02-26T00:14:45.680Z,99.90
2023-02-26T00:17:39.645Z,99.90
2023-02-26T00:20:08.725Z,99.90
2023-02-26T00:22:37.620Z,99.90
2023-02-26T00:25:04.911Z,99.90
2023-02-26T00:27:31.754Z,99.90
2023-02-26T00:29:59.182Z,99.90
2023-02-26T00:32:26.571Z,99.90
2023-02-26T00:34:54.026Z,99.90
2023-02-26T00:37:32.571Z,99.90
2023-02-26T00:40:14.438Z,99.90
2023-02-26T00:42:41.874Z,99.90
2023-02-26T00:45:11.015Z,99.90
2023-02-26T00:47:48.097Z,99.90
2023-02-26T00:50:18.519Z,99.90
2023-02-26T00:52:57.819Z,99.90
2023-02-26T00:55:27.296Z,99.90
2023-02-26T00:57:55.204Z,99.90
2023-02-26T01:00:22.535Z,99.90
2023-02-26T01:02:49.906Z,99.90
2023-02-26T01:05:17.858Z,99.90
2023-02-26T01:07:49.270Z,99.90
2023-02-26T01:10:17.038Z,99.90
2023-02-26T01:12:45.868Z,99.90
2023-02-26T01:15:13.731Z,99.90
2023-02-26T01:17:47.564Z,99.90
2023-02-26T01:20:17.946Z,99.90
2023-02-26T01:22:51.974Z,99.90
2023-02-26T01:25:21.906Z,99.90
2023-02-26T01:27:50.448Z,99.90
2023-02-26T01:30:18.310Z,99.90
2023-02-26T01:32:48.616Z,99.90
2023-02-26T01:35:29.264Z,99.90
2023-02-26T01:38:02.646Z,99.90
2023-02-26T01:40:40.349Z,99.90
2023-02-26T01:43:16.739Z,99.90
2023-02-26T01:45:55.287Z,99.90
2023-02-26T01:48:34.164Z,99.90
2023-02-26T01:51:00.980Z,99.90
2023-02-26T01:53:27.864Z,99.90
2023-02-26T01:55:58.232Z,99.90
2023-02-26T01:58:30.107Z,99.90
2023-02-26T02:00:56.943Z,99.90
2023-02-26T02:03:26.123Z,99.90
2023-02-26T02:05:57.644Z,99.90
2023-02-26T02:08:24.824Z,99.90
2023-02-26T02:10:53.759Z,99.90
2023-02-26T02:13:31.690Z,99.90
2023-02-26T02:16:08.428Z,99.90
2023-02-26T02:18:43.306Z,99.90
2023-02-26T02:21:45.394Z,99.90
2023-02-26T02:24:18.232Z,99.90
2023-02-26T02:26:56.938Z,99.90
2023-02-26T02:30:10.890Z,99.90
2023-02-26T02:32:44.598Z,99.90
2023-02-26T02:35:17.815Z,99.90
2023-02-26T02:37:51.047Z,99.90
2023-02-26T02:40:22.233Z,99.90
2023-02-26T02:42:55.066Z,99.90
2023-02-26T02:45:26.742Z,99.90
2023-02-26T02:47:59.051Z,99.90
2023-02-26T02:50:30.481Z,99.90
2023-02-26T02:53:00.960Z,99.90
2023-02-26T02:55:32.615Z,99.90
2023-02-26T02:58:02.823Z,99.90
2023-02-26T03:00:33.529Z,99.90
2023-02-26T03:03:09.105Z,99.90
2023-02-26T03:05:35.899Z,99.90
2023-02-26T03:08:08.650Z,99.90
2023-02-26T03:10:36.372Z,99.90
2023-02-26T03:13:03.397Z,99.90
2023-02-26T03:15:37.664Z,99.90
2023-02-26T03:18:15.420Z,99.90
2023-02-26T03:20:54.139Z,99.90
2023-02-26T03:23:29.003Z,99.90
2023-02-26T03:26:00.769Z,99.90
2023-02-26T03:28:32.443Z,99.90
2023-02-26T03:31:02.661Z,99.90
2023-02-26T03:33:38.651Z,99.90
2023-02-26T03:36:12.150Z,99.90
2023-02-26T03:38:56.986Z,99.90
2023-02-26T03:41:29.602Z,99.90
2023-02-26T03:44:01.264Z,99.90
2023-02-26T03:46:32.139Z,99.90
2023-02-26T03:49:04.593Z,99.90
2023-02-26T03:51:32.145Z,99.90
2023-02-26T03:54:03.616Z,99.90
2023-02-26T03:56:35.014Z,99.90
2023-02-26T03:59:01.979Z,99.90
2023-02-26T04:01:33.831Z,99.90
2023-02-26T04:04:06.276Z,99.90
2023-02-26T04:06:34.433Z,99.90
2023-02-26T04:09:02.374Z,99.90
2023-02-26T04:11:30.386Z,99.90
2023-02-26T04:13:57.223Z,99.90
2023-02-26T04:16:24.475Z,99.90
2023-02-26T04:18:51.379Z,99.90
2023-02-26T04:21:21.615Z,99.90
2023-02-26T04:23:48.524Z,99.90
2023-02-26T04:26:15.373Z,99.90
2023-02-26T04:28:42.442Z,99.90
2023-02-26T04:31:09.967Z,99.90
2023-02-26T04:33:37.099Z,99.90
2023-02-26T04:36:04.619Z,99.90
2023-02-26T04:38:33.116Z,99.90
2023-02-26T04:41:00.019Z,99.90
2023-02-26T04:43:26.910Z,99.90
2023-02-26T04:45:53.949Z,99.90
2023-02-26T04:48:20.980Z,99.90
2023-02-26T04:50:48.109Z,99.90
2023-02-26T04:53:14.909Z,99.90
2023-02-26T04:55:43.080Z,99.90
2023-02-26T04:58:11.135Z,99.90
2023-02-26T05:00:37.977Z,99.90
2023-02-26T05:03:04.750Z,99.90
2023-02-26T05:05:31.790Z,99.90
2023-02-26T05:07:59.071Z,99.90
2023-02-26T05:10:25.852Z,99.90
2023-02-26T05:12:54.015Z,99.90
2023-02-26T05:15:20.822Z,99.90
2023-02-26T05:17:47.673Z,99.90
2023-02-26T05:20:14.432Z,99.90
2023-02-26T05:22:41.991Z,99.90
2023-02-26T05:25:10.354Z,99.90
2023-02-26T05:27:37.142Z,99.90
2023-02-26T05:30:06.772Z,99.90
2023-02-26T05:32:33.580Z,99.90
2023-02-26T05:35:00.339Z,99.90
2023-02-26T05:37:27.158Z,99.90
2023-02-26T05:39:53.966Z,99.90
2023-02-26T05:42:20.888Z,99.90
2023-02-26T05:44:47.688Z,99.90
2023-02-26T05:47:16.112Z,99.90
2023-02-26T05:49:43.005Z,99.90
2023-02-26T05:52:09.795Z,99.90
2023-02-26T05:54:36.515Z,99.90
2023-02-26T05:57:03.499Z,99.90
2023-02-26T05:59:30.272Z,99.90
2023-02-26T06:01:57.167Z,99.90
2023-02-26T06:04:25.382Z,99.90
2023-02-26T06:06:52.111Z,99.90
2023-02-26T06:09:18.875Z,99.90
2023-02-26T06:11:45.617Z,99.90
2023-02-26T06:14:12.389Z,99.90
2023-02-26T06:16:39.284Z,99.90
2023-02-26T06:19:06.145Z,99.90
2023-02-26T06:21:34.283Z,99.90
2023-02-26T06:24:01.090Z,99.90
2023-02-26T06:26:28.144Z,99.90
2023-02-26T06:28:55.240Z,99.90
2023-02-26T06:31:22.125Z,99.90
2023-02-26T06:33:48.990Z,99.90
2023-02-26T06:36:15.806Z,99.90
2023-02-26T06:38:43.931Z,99.90
2023-02-26T06:41:10.833Z,99.90
2023-02-26T06:43:38.006Z,99.90
2023-02-26T06:46:05.112Z,99.90
2023-02-26T06:48:31.954Z,99.90
2023-02-26T06:50:58.964Z,99.90
2023-02-26T06:53:25.770Z,99.90
2023-02-26T06:55:54.164Z,99.90
2023-02-26T06:58:21.440Z,99.90
2023-02-26T07:00:48.252Z,99.90
2023-02-26T07:03:16.815Z,99.90
2023-02-26T07:05:44.621Z,99.90
2023-02-26T07:08:12.090Z,99.90
2023-02-26T07:10:39.536Z,99.90
2023-02-26T07:13:07.897Z,99.90
2023-02-26T07:15:34.660Z,99.90
2023-02-26T07:18:01.467Z,99.90
2023-02-26T07:20:28.719Z,99.90
2023-02-26T07:22:55.754Z,99.90
2023-02-26T07:25:22.485Z,99.90
2023-02-26T07:27:49.212Z,99.90
2023-02-26T07:30:17.979Z,99.90
2023-02-26T07:32:44.747Z,99.90
2023-02-26T07:35:11.476Z,99.90
2023-02-26T07:37:38.579Z,99.90
2023-02-26T07:40:06.586Z,99.90
2023-02-26T07:42:33.470Z,99.90
2023-02-26T07:45:00.239Z,99.90
2023-02-26T07:47:28.917Z,99.90
2023-02-26T07:49:55.814Z,99.90
2023-02-26T07:52:22.711Z,99.90
2023-02-26T07:54:49.461Z,99.90
2023-02-26T07:57:16.232Z,99.90
2023-02-26T07:59:42.998Z,99.90
2023-02-26T08:02:11.014Z,99.90
2023-02-26T08:04:39.557Z,99.90
2023-02-26T08:07:06.300Z,99.90
2023-02-26T08:09:33.157Z,99.90
2023-02-26T08:11:59.976Z,99.90
2023-02-26T08:14:26.820Z,99.90
2023-02-26T08:16:53.586Z,99.90
2023-02-26T08:19:20.367Z,99.90
2023-02-26T08:21:50.049Z,99.90
2023-02-26T08:24:17.621Z,99.90
2023-02-26T08:26:44.341Z,99.90
2023-02-26T08:29:11.099Z,99.90
2023-02-26T08:31:38.153Z,99.90
2023-02-26T08:34:05.049Z,99.90
2023-02-26T08:36:31.876Z,99.90
2023-02-26T08:39:00.202Z,99.90
2023-02-26T08:41:27.424Z,99.90
2023-02-26T08:43:54.335Z,99.90
2023-02-26T08:46:21.181Z,99.90
2023-02-26T08:48:48.102Z,99.90
2023-02-26T08:51:15.928Z,99.90
2023-02-26T08:53:42.729Z,99.90
2023-02-26T08:56:10.868Z,99.90
2023-02-26T08:58:37.651Z,99.90
2023-02-26T09:01:04.966Z,99.90
2023-02-26T09:03:31.715Z,99.90
2023-02-26T09:05:58.488Z,99.90
2023-02-26T09:08:25.321Z,99.90
2023-02-26T09:10:52.085Z,99.90
2023-02-26T09:13:20.220Z,99.90
2023-02-26T09:15:49.458Z,99.90
2023-02-26T09:18:16.263Z,99.90
2023-02-26T09:20:44.019Z,99.90
2023-02-26T09:23:10.965Z,99.90
2023-02-26T09:25:39.110Z,99.90
2023-02-26T09:28:06.295Z,99.90
2023-02-26T09:30:34.450Z,99.90
2023-02-26T09:33:01.266Z,99.90
2023-02-26T09:35:28.157Z,99.90
2023-02-26T09:37:54.892Z,99.90
2023-02-26T09:40:29.411Z,99.90
2023-02-26T09:43:10.773Z,99.90
2023-02-26T09:45:44.455Z,99.90
2023-02-26T09:48:16.180Z,99.90
2023-02-26T09:50:47.022Z,99.90
2023-02-26T09:53:20.482Z,99.90
2023-02-26T09:55:49.011Z,99.90
2023-02-26T09:58:21.180Z,99.90
2023-02-26T10:00:55.369Z,99.90
2023-02-26T10:03:25.336Z,99.90
2023-02-26T10:06:20.249Z,99.90
2023-02-26T10:08:59.176Z,99.90
2023-02-26T10:11:31.441Z,99.90
2023-02-26T10:14:04.770Z,99.90
2023-02-26T10:16:39.045Z,99.90
2023-02-26T10:19:08.777Z,99.90
2023-02-26T10:21:40.084Z,99.90
2023-02-26T10:24:12.953Z,99.90
2023-02-26T10:26:43.295Z,99.90
2023-02-26T10:29:22.029Z,99.90
2023-02-26T10:32:01.845Z,99.90
2023-02-26T10:34:35.237Z,99.90
2023-02-26T10:37:08.323Z,99.90
2023-02-26T10:39:42.337Z,99.90
2023-02-26T10:42:15.567Z,99.90
2023-02-26T10:44:49.024Z,99.90
2023-02-26T10:47:26.054Z,99.90
2023-02-26T10:49:56.661Z,99.90
2023-02-26T10:52:26.236Z,99.90
2023-02-26T10:55:05.526Z,99.90
2023-02-26T10:57:37.096Z,99.90
2023-02-26T11:00:06.786Z,99.90
2023-02-26T11:02:38.853Z,99.90
2023-02-26T11:05:08.251Z,99.90
2023-02-26T11:07:37.702Z,99.90
2023-02-26T11:10:12.669Z,99.90
2023-02-26T11:12:39.451Z,99.90
2023-02-26T11:15:12.057Z,99.90
2023-02-26T11:17:40.274Z,99.90
2023-02-26T11:20:16.132Z,99.90
2023-02-26T11:22:47.610Z,99.90
2023-02-26T11:25:17.045Z,99.90
2023-02-26T11:27:44.383Z,99.90
2023-02-26T11:30:16.231Z,99.90
2023-02-26T11:32:44.992Z,99.90
2023-02-26T11:35:15.546Z,99.90
2023-02-26T11:37:47.971Z,99.90
2023-02-26T11:40:18.042Z,99.90
2023-02-26T11:42:50.245Z,99.90
2023-02-26T11:45:18.687Z,99.90
2023-02-26T11:47:48.075Z,99.90
2023-02-26T11:50:17.476Z,99.90
2023-02-26T11:52:46.682Z,99.90
2023-02-26T11:55:20.739Z,99.90
2023-02-26T11:57:50.716Z,99.90
2023-02-26T12:00:20.599Z,99.90
2023-02-26T12:02:48.843Z,99.90
2023-02-26T12:05:17.615Z,99.90
2023-02-26T12:07:44.693Z,99.90
2023-02-26T12:10:17.332Z,99.90
2023-02-26T12:12:53.921Z,99.90
2023-02-26T12:15:33.995Z,99.90
2023-02-26T12:18:21.144Z,99.90
2023-02-26T12:20:56.199Z,99.90
2023-02-26T12:23:37.624Z,99.90
2023-02-26T12:26:16.029Z,99.90
2023-02-26T12:28:59.105Z,99.90
2023-02-26T12:31:54.927Z,99.90
2023-02-26T12:34:40.475Z,99.90
2023-02-26T12:37:25.255Z,99.90
2023-02-26T12:40:03.063Z,99.90
2023-02-26T12:42:40.799Z,99.90
2023-02-26T12:45:29.499Z,99.90
2023-02-26T12:48:21.263Z,99.90
2023-02-26T12:51:01.782Z,99.00
2023-02-26T12:53:54.377Z,99.90
2023-02-26T12:56:37.104Z,98.60
2023-02-26T12:59:22.830Z,99.90
2023-02-26T13:02:05.418Z,97.70
2023-02-26T13:04:55.796Z,98.80
2023-02-26T13:07:40.574Z,95.70
2023-02-26T13:10:15.009Z,91.60
2023-02-26T13:12:49.283Z,91.20
2023-02-26T13:15:36.052Z,89.50
2023-02-26T13:18:08.881Z,84.10
2023-02-26T13:20:38.720Z,81.10
2023-02-26T13:23:12.684Z,80.60
2023-02-26T13:25:42.653Z,89.20
2023-02-26T13:28:20.510Z,91.50
2023-02-26T13:30:52.660Z,93.60
2023-02-26T13:33:23.090Z,96.10
2023-02-26T13:35:54.047Z,95.70
2023-02-26T13:38:30.182Z,95.50
2023-02-26T13:41:05.468Z,96.80
2023-02-26T13:43:42.924Z,95.80
2023-02-26T13:46:24.677Z,98.90
2023-02-26T13:48:58.504Z,97.60
2023-02-26T13:51:31.825Z,97.00
2023-02-26T13:54:01.744Z,98.60
2023-02-26T13:57:17.317Z,99.90
2023-02-26T13:59:53.251Z,99.90
2023-02-26T14:02:43.916Z,99.90
2023-02-26T14:05:30.912Z,99.90
2023-02-26T14:08:24.112Z,99.90
2023-02-26T14:10:58.284Z,99.90
2023-02-26T14:13:30.982Z,99.90
2023-02-26T14:16:00.929Z,99.90
2023-02-26T14:18:34.748Z,99.90
2023-02-26T14:21:37.328Z,99.90
2023-02-26T14:24:13.308Z,98.40
2023-02-26T14:26:46.087Z,95.40
2023-02-26T14:29:19.844Z,91.60
2023-02-26T14:31:55.999Z,90.20
2023-02-26T14:34:25.400Z,87.30
2023-02-26T14:36:54.953Z,83.50
2023-02-26T14:39:29.446Z,88.00
2023-02-26T14:42:02.052Z,84.10
2023-02-26T14:44:32.469Z,79.50
2023-02-26T14:46:59.443Z,79.50
2023-02-26T14:49:30.781Z,80.40
2023-02-26T14:52:26.493Z,85.50
2023-02-26T14:55:26.037Z,90.70
2023-02-26T14:58:06.239Z,93.60
2023-02-26T15:00:41.571Z,95.40
2023-02-26T15:03:22.763Z,96.40
2023-02-26T15:06:01.857Z,96.60
2023-02-26T15:08:53.907Z,97.90
2023-02-26T15:11:40.587Z,98.60
2023-02-26T15:14:32.989Z,99.10
2023-02-26T15:17:10.093Z,98.20
2023-02-26T15:19:56.275Z,97.50
2023-02-26T15:22:39.472Z,98.90
2023-02-26T15:25:15.172Z,98.90
2023-02-26T15:27:42.192Z,97.90
2023-02-26T15:30:14.777Z,98.60
2023-02-26T15:32:41.793Z,97.80
2023-02-26T15:35:15.673Z,99.20
2023-02-26T15:37:42.523Z,99.10
2023-02-26T15:40:11.530Z,99.50
2023-02-26T15:42:40.935Z,99.40
2023-02-26T15:45:15.901Z,99.90
2023-02-26T15:47:42.697Z,99.90
2023-02-26T15:50:14.733Z,99.90
2023-02-26T15:52:41.681Z,99.90
2023-02-26T15:55:14.632Z,99.90
2023-02-26T15:57:41.831Z,99.90
2023-02-26T16:00:14.224Z,99.90
2023-02-26T16:02:43.007Z,99.90
2023-02-26T16:05:12.436Z,99.90
2023-02-26T16:07:39.249Z,99.90
2023-02-26T16:10:14.707Z,99.90
2023-02-26T16:12:44.889Z,99.90
2023-02-26T16:15:15.365Z,99.90
2023-02-26T16:17:47.918Z,99.90
2023-02-26T16:20:17.516Z,99.90
2023-02-26T16:22:48.283Z,99.90
2023-02-26T16:25:18.736Z,99.90
2023-02-26T16:27:49.693Z,99.90
2023-02-26T16:30:18.646Z,99.90
2023-02-26T16:32:53.880Z,99.90
2023-02-26T16:35:22.809Z,99.90
2023-02-26T16:37:52.820Z,99.90
2023-02-26T16:40:24.453Z,99.90
2023-02-26T16:43:01.082Z,99.90
2023-02-26T16:45:46.188Z,99.90
2023-02-26T16:48:16.906Z,99.90
2023-02-26T16:50:43.856Z,99.90
2023-02-26T16:53:20.969Z,99.90
2023-02-26T16:55:54.617Z,99.90
2023-02-26T16:58:22.938Z,99.90
2023-02-26T17:00:56.670Z,99.90
2023-02-26T17:03:26.293Z,99.90
2023-02-26T17:05:58.895Z,99.90
2023-02-26T17:08:28.137Z,99.90
2023-02-26T17:11:01.396Z,99.90
2023-02-26T17:13:30.075Z,99.90
2023-02-26T17:16:00.998Z,99.90
2023-02-26T17:18:29.556Z,99.90
2023-02-26T17:20:57.616Z,99.90
2023-02-26T17:23:29.361Z,99.90
2023-02-26T17:25:57.171Z,99.90
2023-02-26T17:28:26.722Z,99.90
2023-02-26T17:30:54.459Z,99.90
2023-02-26T17:33:21.705Z,99.90
2023-02-26T17:35:50.601Z,99.90
2023-02-26T17:38:17.386Z,99.90
2023-02-26T17:40:46.051Z,99.90
2023-02-26T17:43:13.075Z,99.90
2023-02-26T17:45:40.938Z,99.90
2023-02-26T17:48:08.334Z,99.90
2023-02-26T17:50:41.759Z,99.90
2023-02-26T17:53:10.271Z,99.90
2023-02-26T17:55:38.256Z,99.90
2023-02-26T17:58:06.170Z,99.90
2023-02-26T18:00:33.010Z,99.90
2023-02-26T18:02:59.990Z,99.90
2023-02-26T18:05:26.932Z,99.90
2023-02-26T18:07:53.956Z,99.90
2023-02-26T18:10:25.119Z,99.90
2023-02-26T18:12:52.142Z,99.90
2023-02-26T18:15:18.978Z,99.90
2023-02-26T18:17:45.728Z,99.90
2023-02-26T18:20:16.604Z,99.90
2023-02-26T18:22:43.657Z,99.90
2023-02-26T18:25:12.510Z,99.90
2023-02-26T18:27:41.012Z,99.90
2023-02-26T18:30:11.767Z,99.90
2023-02-26T18:32:38.563Z,99.90
2023-02-26T18:35:05.916Z,99.90
2023-02-26T18:37:32.684Z,99.90
2023-02-26T18:39:59.475Z,99.90
2023-02-26T18:42:27.764Z,99.90
2023-02-26T18:44:56.092Z,99.90
2023-02-26T18:47:23.095Z,99.90
2023-02-26T18:49:51.083Z,99.90
2023-02-26T18:52:18.059Z,99.90
2023-02-26T18:54:44.807Z,99.90
2023-02-26T18:57:11.660Z,99.90
2023-02-26T18:59:38.417Z,99.90
2023-02-26T19:02:07.214Z,99.90
2023-02-26T19:04:34.662Z,99.90
2023-02-26T19:07:01.432Z,99.90
2023-02-26T19:09:28.157Z,99.90
2023-02-26T19:11:55.521Z,99.90
2023-02-26T19:14:22.254Z,99.90
2023-02-26T19:16:49.070Z,99.90
2023-02-26T19:19:17.316Z,99.90
2023-02-26T19:21:44.185Z,99.90
2023-02-26T19:24:12.309Z,99.90
2023-02-26T19:26:39.599Z,99.90
2023-02-26T19:29:08.138Z,99.90
2023-02-26T19:31:35.241Z,99.90
2023-02-26T19:34:02.415Z,99.90
2023-02-26T19:36:30.829Z,99.90
2023-02-26T19:38:57.561Z,99.90
2023-02-26T19:41:24.491Z,99.90
2023-02-26T19:43:51.585Z,99.90
2023-02-26T19:46:18.460Z,99.90
2023-02-26T19:48:45.251Z,99.90
2023-02-26T19:51:12.078Z,99.90
2023-02-26T19:53:40.227Z,99.90
2023-02-26T19:56:07.164Z,99.90
2023-02-26T19:58:33.977Z,99.90
2023-02-26T20:01:02.363Z,99.90
2023-02-26T20:03:29.765Z,99.90
2023-02-26T20:05:57.530Z,99.90
2023-02-26T20:08:25.967Z,99.90
2023-02-26T20:10:54.876Z,99.90
2023-02-26T20:13:22.176Z,99.90
2023-02-26T20:15:51.289Z,99.90
2023-02-26T20:18:19.520Z,99.90
2023-02-26T20:20:46.337Z,99.90
2023-02-26T20:23:13.200Z,99.90
2023-02-26T20:25:42.523Z,99.90
2023-02-26T20:28:10.674Z,99.90
2023-02-26T20:30:37.559Z,99.90
2023-02-26T20:33:04.511Z,99.90
2023-02-26T20:35:31.276Z,99.90
2023-02-26T20:37:58.032Z,99.90
2023-02-26T20:40:24.837Z,99.90
2023-02-26T20:42:51.697Z,99.90
2023-02-26T20:45:19.987Z,99.90
2023-02-26T20:47:46.744Z,99.90
2023-02-26T20:50:13.627Z,99.90
2023-02-26T20:52:40.373Z,99.90
2023-02-26T20:55:07.996Z,99.90
2023-02-26T20:57:34.760Z,99.90
2023-02-26T21:00:01.889Z,99.90
2023-02-26T21:02:30.097Z,99.90
2023-02-26T21:04:56.902Z,99.90
2023-02-26T21:07:24.900Z,99.90
2023-02-26T21:09:51.856Z,99.90
2023-02-26T21:12:18.955Z,99.90
2023-02-26T21:14:45.892Z,99.90
2023-02-26T21:17:12.879Z,99.90
2023-02-26T21:19:41.210Z,99.90
2023-02-26T21:22:08.074Z,99.90
2023-02-26T21:24:34.836Z,99.90
2023-02-26T21:27:01.597Z,99.90
2023-02-26T21:29:28.403Z,99.90
2023-02-26T21:31:55.232Z,99.90
2023-02-26T21:34:33.673Z,99.90
2023-02-26T21:37:03.467Z,99.90
2023-02-26T21:39:30.318Z,99.90
2023-02-26T21:41:57.252Z,99.90
2023-02-26T21:44:24.187Z,99.90
2023-02-26T21:46:50.995Z,99.90
2023-02-26T21:49:17.759Z,99.90
2023-02-26T21:51:44.617Z,99.90
2023-02-26T21:54:15.592Z,99.90
2023-02-26T21:56:45.680Z,99.90
2023-02-26T21:59:12.439Z,99.90
2023-02-26T22:01:39.180Z,99.90
2023-02-26T22:04:06.241Z,99.90
2023-02-26T22:06:33.407Z,99.90
2023-02-26T22:09:00.204Z,99.90
2023-02-26T22:11:28.662Z,99.90
2023-02-26T22:13:55.598Z,99.90
2023-02-26T22:16:22.440Z,99.90
2023-02-26T22:18:49.258Z,99.90
2023-02-26T22:21:16.046Z,99.90
2023-02-26T22:23:42.997Z,99.90
2023-02-26T22:26:09.725Z,99.90
2023-02-26T22:28:37.848Z,99.90
2023-02-26T22:31:05.072Z,99.90
2023-02-26T22:33:31.859Z,99.90
2023-02-26T22:35:59.346Z,99.90
2023-02-26T22:38:26.680Z,99.90
2023-02-26T22:40:53.867Z,99.90
2023-02-26T22:43:20.878Z,99.90
2023-02-26T22:45:49.418Z,99.90
2023-02-26T22:48:16.375Z,99.90
2023-02-26T22:50:43.357Z,99.90
2023-02-26T22:53:10.166Z,99.90
2023-02-26T22:55:36.955Z,99.90
2023-02-26T22:58:03.746Z,99.90
2023-02-26T23:00:30.617Z,99.90
2023-02-26T23:02:58.773Z,99.90
2023-02-26T23:05:25.550Z,99.90
2023-02-26T23:07:52.310Z,99.90
2023-02-26T23:10:20.024Z,99.90
2023-02-26T23:12:47.459Z,99.90
2023-02-26T23:15:14.900Z,99.90
2023-02-26T23:17:41.931Z,99.90
2023-02-26T23:20:12.883Z,99.90
2023-02-26T23:22:40.269Z,99.90
2023-02-26T23:25:07.588Z,99.90
2023-02-26T23:27:34.458Z,99.90
2023-02-26T23:30:01.530Z,99.90
2023-02-26T23:32:28.492Z,99.90
2023-02-26T23:34:55.281Z,99.90
2023-02-26T23:37:23.645Z,99.90
2023-02-26T23:39:50.415Z,99.90
2023-02-26T23:42:17.234Z,99.90
2023-02-26T23:44:44.008Z,99.90
2023-02-26T23:47:10.814Z,99.90
2023-02-26T23:49:37.610Z,99.90
2023-02-26T23:52:04.557Z,99.90
2023-02-26T23:54:32.769Z,99.90
2023-02-26T23:56:59.540Z,99.90
2023-02-26T23:59:26.272Z,99.90
